sensor_id;sensor_type;location;lat;lon;timestamp;pressure;altitude;pressure_sealevel;temperature;humidity
17450;BME280;8842;51.244;7.102;2023-05-29T00:02:38;99823.93;;;15.22;88.28
17450;BME280;8842;51.244;7.102;2023-05-29T00:12:55;99831.58;;;15.12;87.12
17450;BME280;8842;51.244;7.102;2023-05-29T00:23:14;99824.64;;;14.90;89.89
17450;BME280;8842;51.244;7.102;2023-05-29T00:38:43;99841.45;;;14.72;91.27
17450;BME280;8842;51.244;7.102;2023-05-29T00:49:02;99835.06;;;14.54;92.96
17450;BME280;8842;51.244;7.102;2023-05-29T00:59:20;99845.89;;;14.32;94.95
17450;BME280;8842;51.244;7.102;2023-05-29T01:09:39;99842.69;;;13.96;96.39
17450;BME280;8842;51.244;7.102;2023-05-29T01:20:08;99849.31;;;14.08;99.16
17450;BME280;8842;51.244;7.102;2023-05-29T01:30:28;99852.71;;;13.83;98.58
17450;BME280;8842;51.244;7.102;2023-05-29T01:40:47;99849.56;;;13.52;100.00
17450;BME280;8842;51.244;7.102;2023-05-29T01:51:06;99859.56;;;13.39;100.00
17450;BME280;8842;51.244;7.102;2023-05-29T02:01:22;99874.79;;;13.00;100.00
17450;BME280;8842;51.244;7.102;2023-05-29T02:11:38;99890.39;;;12.72;100.00
17450;BME280;8842;51.244;7.102;2023-05-29T02:16:44;99906.03;;;12.71;100.00
17450;BME280;8842;51.244;7.102;2023-05-29T02:27:03;99882.15;;;12.47;100.00
17450;BME280;8842;51.244;7.102;2023-05-29T02:37:19;99892.66;;;12.38;100.00
17450;BME280;8842;51.244;7.102;2023-05-29T02:47:34;99894.10;;;12.25;100.00
17450;BME280;8842;51.244;7.102;2023-05-29T02:57:50;99920.69;;;12.14;100.00
17450;BME280;8842;51.244;7.102;2023-05-29T03:08:08;99912.27;;;11.91;100.00
17450;BME280;8842;51.244;7.102;2023-05-29T03:18:26;99909.77;;;11.71;100.00
17450;BME280;8842;51.244;7.102;2023-05-29T03:23:30;99917.95;;;11.63;100.00
17450;BME280;8842;51.244;7.102;2023-05-29T03:33:46;99914.09;;;11.67;100.00
17450;BME280;8842;51.244;7.102;2023-05-29T03:44:03;99912.94;;;11.58;100.00
17450;BME280;8842;51.244;7.102;2023-05-29T03:54:19;99906.88;;;11.56;100.00
17450;BME280;8842;51.244;7.102;2023-05-29T03:59:23;99915.50;;;11.42;100.00
17450;BME280;8842;51.244;7.102;2023-05-29T04:09:39;99924.27;;;11.55;100.00
17450;BME280;8842;51.244;7.102;2023-05-29T04:14:43;99926.59;;;11.59;100.00
17450;BME280;8842;51.244;7.102;2023-05-29T04:25:07;99935.16;;;11.70;100.00
17450;BME280;8842;51.244;7.102;2023-05-29T04:35:24;99951.77;;;11.79;100.00
17450;BME280;8842;51.244;7.102;2023-05-29T04:40:28;99950.89;;;11.73;100.00
17450;BME280;8842;51.244;7.102;2023-05-29T04:50:45;99943.72;;;11.68;100.00
17450;BME280;8842;51.244;7.102;2023-05-29T05:06:13;99953.63;;;11.48;100.00
17450;BME280;8842;51.244;7.102;2023-05-29T05:16:31;99965.12;;;11.90;100.00
17450;BME280;8842;51.244;7.102;2023-05-29T05:26:48;99973.88;;;11.97;100.00
17450;BME280;8842;51.244;7.102;2023-05-29T05:31:52;99989.69;;;12.17;100.00
17450;BME280;8842;51.244;7.102;2023-05-29T05:42:07;99990.20;;;12.22;100.00
17450;BME280;8842;51.244;7.102;2023-05-29T05:52:23;99977.82;;;12.45;100.00
17450;BME280;8842;51.244;7.102;2023-05-29T06:02:40;99983.28;;;12.54;100.00
17450;BME280;8842;51.244;7.102;2023-05-29T06:12:57;99982.25;;;12.79;100.00
17450;BME280;8842;51.244;7.102;2023-05-29T06:23:13;99992.30;;;12.75;100.00
17450;BME280;8842;51.244;7.102;2023-05-29T06:28:17;100001.27;;;12.85;100.00
17450;BME280;8842;51.244;7.102;2023-05-29T06:33:21;99999.63;;;13.06;100.00
17450;BME280;8842;51.244;7.102;2023-05-29T06:43:37;99992.10;;;13.44;100.00
17450;BME280;8842;51.244;7.102;2023-05-29T06:48:41;100000.46;;;13.56;100.00
17450;BME280;8842;51.244;7.102;2023-05-29T06:58:57;100000.91;;;13.83;100.00
17450;BME280;8842;51.244;7.102;2023-05-29T07:09:12;100018.53;;;14.18;100.00
17450;BME280;8842;51.244;7.102;2023-05-29T07:19:28;100010.58;;;14.85;100.00
17450;BME280;8842;51.244;7.102;2023-05-29T07:24:33;100018.76;;;14.98;96.64
17450;BME280;8842;51.244;7.102;2023-05-29T07:34:48;100024.70;;;15.32;91.05
17450;BME280;8842;51.244;7.102;2023-05-29T07:45:07;100041.45;;;15.69;88.38
17450;BME280;8842;51.244;7.102;2023-05-29T07:55:23;100059.92;;;15.97;85.36
17450;BME280;8842;51.244;7.102;2023-05-29T08:05:41;100070.82;;;16.68;82.33
17450;BME280;8842;51.244;7.102;2023-05-29T08:15:57;100080.25;;;17.42;80.26
17450;BME280;8842;51.244;7.102;2023-05-29T08:26:13;100081.02;;;18.26;77.35
17450;BME280;8842;51.244;7.102;2023-05-29T08:36:30;100075.61;;;18.22;77.01
17450;BME280;8842;51.244;7.102;2023-05-29T08:46:50;100078.69;;;19.14;73.26
17450;BME280;8842;51.244;7.102;2023-05-29T08:57:09;100074.80;;;18.74;74.86
17450;BME280;8842;51.244;7.102;2023-05-29T09:07:26;100074.05;;;18.64;72.97
17450;BME280;8842;51.244;7.102;2023-05-29T09:17:43;100073.25;;;18.67;74.21
17450;BME280;8842;51.244;7.102;2023-05-29T09:22:53;100085.94;;;18.57;75.37
17450;BME280;8842;51.244;7.102;2023-05-29T09:33:12;100082.58;;;19.97;67.03
17450;BME280;8842;51.244;7.102;2023-05-29T09:48:43;100101.90;;;19.88;65.72
17450;BME280;8842;51.244;7.102;2023-05-29T09:58:59;100100.19;;;20.70;63.39
17450;BME280;8842;51.244;7.102;2023-05-29T10:09:18;100096.70;;;20.24;64.83
17450;BME280;8842;51.244;7.102;2023-05-29T10:19:37;100093.27;;;20.92;64.49
17450;BME280;8842;51.244;7.102;2023-05-29T10:24:43;100103.22;;;20.67;62.00
17450;BME280;8842;51.244;7.102;2023-05-29T10:35:05;100091.77;;;20.85;59.73
17450;BME280;8842;51.244;7.102;2023-05-29T10:45:48;100096.20;;;21.18;65.26
17450;BME280;8842;51.244;7.102;2023-05-29T10:56:10;100084.70;;;21.08;64.41
17450;BME280;8842;51.244;7.102;2023-05-29T11:06:29;100071.11;;;21.60;58.41
17450;BME280;8842;51.244;7.102;2023-05-29T11:16:47;100064.30;;;21.93;61.06
17450;BME280;8842;51.244;7.102;2023-05-29T11:21:59;100058.48;;;22.04;58.27
17450;BME280;8842;51.244;7.102;2023-05-29T11:32:17;100064.51;;;22.14;60.30
17450;BME280;8842;51.244;7.102;2023-05-29T11:42:36;100062.20;;;21.48;62.84
17450;BME280;8842;51.244;7.102;2023-05-29T11:53:06;100067.14;;;20.96;62.08
17450;BME280;8842;51.244;7.102;2023-05-29T12:03:23;100058.50;;;20.73;59.56
17450;BME280;8842;51.244;7.102;2023-05-29T12:13:38;100055.98;;;20.79;67.04
17450;BME280;8842;51.244;7.102;2023-05-29T12:23:55;100072.15;;;20.55;66.51
17450;BME280;8842;51.244;7.102;2023-05-29T12:34:14;100064.03;;;20.35;63.60
17450;BME280;8842;51.244;7.102;2023-05-29T12:39:19;100068.86;;;20.16;62.31
17450;BME280;8842;51.244;7.102;2023-05-29T12:49:36;100054.55;;;20.23;64.83
17450;BME280;8842;51.244;7.102;2023-05-29T12:59:52;100054.84;;;20.12;65.95
17450;BME280;8842;51.244;7.102;2023-05-29T13:10:10;100060.34;;;20.44;64.38
17450;BME280;8842;51.244;7.102;2023-05-29T13:20:26;100064.48;;;20.23;66.50
17450;BME280;8842;51.244;7.102;2023-05-29T13:30:42;100069.42;;;20.35;66.28
17450;BME280;8842;51.244;7.102;2023-05-29T13:40:58;100054.78;;;20.46;63.92
17450;BME280;8842;51.244;7.102;2023-05-29T13:51:14;100047.86;;;20.51;62.86
17450;BME280;8842;51.244;7.102;2023-05-29T13:56:18;100042.44;;;20.39;65.67
17450;BME280;8842;51.244;7.102;2023-05-29T14:06:34;100044.75;;;20.18;61.07
17450;BME280;8842;51.244;7.102;2023-05-29T14:11:40;100046.42;;;20.19;62.77
17450;BME280;8842;51.244;7.102;2023-05-29T14:21:56;100044.29;;;19.89;64.38
17450;BME280;8842;51.244;7.102;2023-05-29T14:32:11;100047.86;;;19.98;63.13
17450;BME280;8842;51.244;7.102;2023-05-29T14:37:16;100038.75;;;19.99;62.07
17450;BME280;8842;51.244;7.102;2023-05-29T14:47:32;100033.52;;;19.93;60.96
17450;BME280;8842;51.244;7.102;2023-05-29T14:57:48;100038.16;;;20.13;59.41
17450;BME280;8842;51.244;7.102;2023-05-29T15:02:52;100035.59;;;20.11;61.78
17450;BME280;8842;51.244;7.102;2023-05-29T15:07:57;100034.86;;;19.93;60.64
17450;BME280;8842;51.244;7.102;2023-05-29T15:18:12;100032.98;;;19.90;60.66
17450;BME280;8842;51.244;7.102;2023-05-29T15:28:28;100035.14;;;19.82;62.88
17450;BME280;8842;51.244;7.102;2023-05-29T15:33:32;100036.95;;;19.65;66.19
17450;BME280;8842;51.244;7.102;2023-05-29T15:43:48;100026.22;;;19.48;63.81
17450;BME280;8842;51.244;7.102;2023-05-29T15:54:04;100019.59;;;19.68;60.59
17450;BME280;8842;51.244;7.102;2023-05-29T16:04:20;100024.88;;;19.78;62.35
17450;BME280;8842;51.244;7.102;2023-05-29T16:14:35;100030.76;;;19.77;59.89
17450;BME280;8842;51.244;7.102;2023-05-29T16:24:54;100041.09;;;19.52;60.07
17450;BME280;8842;51.244;7.102;2023-05-29T16:35:10;100033.47;;;19.26;58.43
17450;BME280;8842;51.244;7.102;2023-05-29T16:40:14;100026.84;;;19.34;58.50
17450;BME280;8842;51.244;7.102;2023-05-29T16:50:30;100032.30;;;19.46;59.02
17450;BME280;8842;51.244;7.102;2023-05-29T17:00:46;100040.34;;;19.20;58.20
17450;BME280;8842;51.244;7.102;2023-05-29T17:05:50;100039.49;;;19.20;59.64
17450;BME280;8842;51.244;7.102;2023-05-29T17:10:54;100042.92;;;19.00;56.40
17450;BME280;8842;51.244;7.102;2023-05-29T17:15:58;100045.25;;;19.21;55.65
17450;BME280;8842;51.244;7.102;2023-05-29T17:21:03;100034.89;;;19.12;55.50
17450;BME280;8842;51.244;7.102;2023-05-29T17:26:07;100045.24;;;18.99;53.00
17450;BME280;8842;51.244;7.102;2023-05-29T17:36:22;100041.83;;;18.93;51.44
17450;BME280;8842;51.244;7.102;2023-05-29T17:46:38;100051.56;;;18.90;49.03
17450;BME280;8842;51.244;7.102;2023-05-29T17:56:56;100052.11;;;18.94;47.98
17450;BME280;8842;51.244;7.102;2023-05-29T18:02:00;100055.59;;;18.90;48.33
17450;BME280;8842;51.244;7.102;2023-05-29T18:07:05;100056.27;;;18.71;47.65
17450;BME280;8842;51.244;7.102;2023-05-29T18:17:21;100051.32;;;18.62;48.38
17450;BME280;8842;51.244;7.102;2023-05-29T18:27:38;100048.94;;;18.42;48.50
17450;BME280;8842;51.244;7.102;2023-05-29T18:37:54;100047.20;;;18.37;48.11
17450;BME280;8842;51.244;7.102;2023-05-29T18:42:58;100049.20;;;18.21;48.00
17450;BME280;8842;51.244;7.102;2023-05-29T18:48:02;100057.32;;;18.12;47.36
17450;BME280;8842;51.244;7.102;2023-05-29T18:58:18;100065.16;;;18.05;47.15
17450;BME280;8842;51.244;7.102;2023-05-29T19:03:22;100060.80;;;17.91;46.90
17450;BME280;8842;51.244;7.102;2023-05-29T19:13:38;100066.69;;;17.80;45.47
17450;BME280;8842;51.244;7.102;2023-05-29T19:23:54;100078.48;;;17.56;45.14
17450;BME280;8842;51.244;7.102;2023-05-29T19:28:59;100070.30;;;17.48;44.60
17450;BME280;8842;51.244;7.102;2023-05-29T19:34:03;100081.97;;;17.43;44.90
17450;BME280;8842;51.244;7.102;2023-05-29T19:44:21;100086.83;;;17.34;45.39
17450;BME280;8842;51.244;7.102;2023-05-29T19:54:37;100082.23;;;17.08;45.63
17450;BME280;8842;51.244;7.102;2023-05-29T20:04:52;100090.22;;;16.94;46.58
17450;BME280;8842;51.244;7.102;2023-05-29T20:15:10;100099.98;;;16.67;48.31
17450;BME280;8842;51.244;7.102;2023-05-29T20:25:26;100102.61;;;16.63;50.38
17450;BME280;8842;51.244;7.102;2023-05-29T20:35:42;100109.92;;;16.27;52.87
17450;BME280;8842;51.244;7.102;2023-05-29T20:46:02;100112.50;;;16.13;53.91
17450;BME280;8842;51.244;7.102;2023-05-29T20:51:07;100110.50;;;16.06;54.56
17450;BME280;8842;51.244;7.102;2023-05-29T20:56:11;100115.45;;;15.85;53.83
17450;BME280;8842;51.244;7.102;2023-05-29T21:06:28;100118.42;;;15.77;53.78
17450;BME280;8842;51.244;7.102;2023-05-29T21:16:44;100116.73;;;15.76;52.66
17450;BME280;8842;51.244;7.102;2023-05-29T21:27:00;100118.13;;;15.70;54.08
17450;BME280;8842;51.244;7.102;2023-05-29T21:37:20;100121.25;;;15.45;53.73
17450;BME280;8842;51.244;7.102;2023-05-29T21:42:24;100120.11;;;15.27;54.39
17450;BME280;8842;51.244;7.102;2023-05-29T21:52:39;100129.14;;;15.21;54.97
17450;BME280;8842;51.244;7.102;2023-05-29T21:57:44;100130.86;;;15.01;55.43
17450;BME280;8842;51.244;7.102;2023-05-29T22:07:59;100139.34;;;14.75;56.09
17450;BME280;8842;51.244;7.102;2023-05-29T22:13:03;100149.27;;;14.84;55.06
17450;BME280;8842;51.244;7.102;2023-05-29T22:23:19;100150.70;;;14.62;56.06
17450;BME280;8842;51.244;7.102;2023-05-29T22:33:37;100167.78;;;14.39;57.70
17450;BME280;8842;51.244;7.102;2023-05-29T22:38:41;100161.83;;;14.13;56.20
17450;BME280;8842;51.244;7.102;2023-05-29T22:48:58;100178.45;;;14.11;54.96
17450;BME280;8842;51.244;7.102;2023-05-29T22:59:15;100178.59;;;13.98;53.64
17450;BME280;8842;51.244;7.102;2023-05-29T23:09:31;100193.84;;;13.52;53.42
17450;BME280;8842;51.244;7.102;2023-05-29T23:19:47;100199.30;;;13.56;53.60
17450;BME280;8842;51.244;7.102;2023-05-29T23:30:05;100199.38;;;13.38;55.68
17450;BME280;8842;51.244;7.102;2023-05-29T23:35:10;100196.77;;;13.15;54.68
17450;BME280;8842;51.244;7.102;2023-05-29T23:40:14;100201.47;;;12.88;55.53
17450;BME280;8842;51.244;7.102;2023-05-29T23:45:18;100197.58;;;12.86;55.92
17450;BME280;8842;51.244;7.102;2023-05-29T23:50:22;100203.53;;;12.84;55.82
17450;BME280;8842;51.244;7.102;2023-05-29T23:55:26;100208.22;;;12.57;57.30
